createdAt,value
2019-04-26T19:33:11.720Z,15.80
2019-04-26T19:38:15.391Z,15.90
2019-04-26T19:43:30.288Z,16.10
2019-04-26T19:48:56.571Z,16.30
2019-04-26T19:54:07.757Z,16.20
2019-04-26T19:59:12.396Z,16.50
2019-04-26T20:04:17.165Z,16.70
2019-04-26T20:09:22.763Z,16.70
2019-04-26T20:14:39.883Z,16.70
2019-04-26T20:19:37.188Z,16.70
2019-04-26T20:24:39.202Z,16.60
2019-04-26T20:29:47.236Z,16.80
2019-04-26T20:35:04.639Z,16.60
2019-04-26T20:40:18.516Z,16.60
2019-04-26T20:45:16.966Z,16.60
2019-04-26T20:50:21.789Z,16.50
2019-04-26T20:55:30.957Z,16.50
2019-04-26T21:00:36.557Z,16.40
2019-04-26T21:05:46.067Z,16.50
2019-04-26T21:10:44.312Z,16.50
2019-04-26T21:15:57.935Z,16.50
2019-04-26T21:20:54.331Z,16.40
2019-04-26T21:26:21.635Z,16.40
2019-04-26T21:31:52.348Z,16.40
2019-04-26T21:37:05.319Z,16.40
2019-04-26T21:42:10.727Z,16.60
2019-04-26T21:47:15.092Z,16.50
2019-04-26T21:52:21.484Z,16.30
2019-04-26T21:57:28.273Z,16.40
2019-04-26T22:02:34.934Z,16.20
2019-04-26T22:07:39.571Z,16.50
2019-04-26T22:12:45.248Z,16.30
2019-04-26T22:17:54.564Z,16.20
2019-04-26T22:23:35.915Z,16.20
2019-04-26T22:28:39.866Z,16.10
2019-04-26T22:33:44.648Z,16.20
2019-04-26T22:38:50.032Z,16.20
2019-04-26T22:44:15.063Z,16.00
2019-04-26T22:49:19.096Z,16.10
2019-04-26T22:54:24.836Z,16.00
2019-04-26T22:59:29.195Z,16.10
2019-04-26T23:04:33.144Z,16.20
2019-04-26T23:09:37.464Z,15.80
2019-04-26T23:14:55.075Z,16.00
2019-04-26T23:20:34.338Z,15.80
2019-04-26T23:25:35.525Z,15.90
2019-04-26T23:30:39.964Z,15.90
2019-04-26T23:35:47.556Z,15.90
2019-04-26T23:40:49.882Z,16.00
2019-04-26T23:45:54.359Z,16.10
2019-04-26T23:50:59.913Z,15.90
2019-04-26T23:56:04.290Z,15.60
